createdAt,value
2023-02-28T00:00:40.321Z,-0.42
2023-02-28T00:03:09.738Z,-0.34
2023-02-28T00:05:40.601Z,-0.13
2023-02-28T00:08:10.443Z,-0.15
2023-02-28T00:10:40.693Z,-0.02
2023-02-28T00:13:12.926Z,-0.44
2023-02-28T00:15:46.409Z,-0.44
2023-02-28T00:18:15.806Z,-0.33
2023-02-28T00:20:49.422Z,-0.35
2023-02-28T00:23:19.186Z,-0.17
2023-02-28T00:25:48.948Z,-0.36
2023-02-28T00:28:18.567Z,-0.29
2023-02-28T00:30:48.493Z,-0.32
2023-02-28T00:33:18.126Z,-0.10
2023-02-28T00:35:49.793Z,-0.38
2023-02-28T00:38:19.220Z,-0.35
2023-02-28T00:40:48.659Z,-0.32
2023-02-28T00:43:18.080Z,-0.44
2023-02-28T00:45:47.984Z,-0.22
2023-02-28T00:48:17.197Z,0.01
2023-02-28T00:50:46.657Z,-0.12
2023-02-28T00:53:17.571Z,-0.29
2023-02-28T00:55:47.506Z,-0.44
2023-02-28T00:58:16.938Z,-0.43
2023-02-28T01:00:50.479Z,-0.35
2023-02-28T01:03:21.357Z,-0.95
2023-02-28T01:05:50.939Z,-0.79
2023-02-28T01:08:21.623Z,-0.38
2023-02-28T01:10:51.926Z,-0.22
2023-02-28T01:13:22.351Z,-0.41
2023-02-28T01:15:54.307Z,-0.44
2023-02-28T01:18:33.496Z,-0.77
2023-02-28T01:21:06.581Z,-0.70
2023-02-28T01:23:37.512Z,-0.20
2023-02-28T01:26:08.264Z,-0.35
2023-02-28T01:28:37.751Z,-0.76
2023-02-28T01:31:07.643Z,-0.35
2023-02-28T01:33:38.394Z,-0.35
2023-02-28T01:36:09.877Z,-0.29
2023-02-28T01:38:41.251Z,-0.66
2023-02-28T01:41:16.750Z,-0.28
2023-02-28T01:43:59.001Z,-0.75
2023-02-28T01:46:28.482Z,-0.21
2023-02-28T01:49:03.560Z,-0.27
2023-02-28T01:51:38.208Z,-0.19
2023-02-28T01:54:21.195Z,-0.26
2023-02-28T01:56:56.741Z,-0.18
2023-02-28T01:59:31.985Z,-0.39
2023-02-28T02:02:02.537Z,-0.58
2023-02-28T02:04:49.736Z,-0.41
2023-02-28T02:07:36.144Z,-0.31
2023-02-28T02:10:51.884Z,-0.45
2023-02-28T02:13:59.399Z,-0.85
2023-02-28T02:16:39.082Z,-0.90
2023-02-28T02:19:49.190Z,-0.82
2023-02-28T02:23:13.131Z,-0.90
2023-02-28T02:25:47.961Z,-1.03
2023-02-28T02:29:19.545Z,-0.81
2023-02-28T02:32:59.350Z,-0.65
2023-02-28T02:35:50.965Z,-0.75
2023-02-28T02:38:29.772Z,-1.14
2023-02-28T02:41:10.184Z,-0.81
2023-02-28T02:43:45.343Z,-0.99
2023-02-28T02:46:18.760Z,-0.63
2023-02-28T02:48:49.253Z,-0.57
2023-02-28T02:51:24.002Z,-0.79
2023-02-28T02:53:57.550Z,-0.67
2023-02-28T02:56:34.469Z,-0.58
2023-02-28T02:59:10.340Z,-0.56
2023-02-28T03:01:41.048Z,-0.80
2023-02-28T03:04:14.467Z,-0.86
2023-02-28T03:06:45.580Z,-0.83
2023-02-28T03:09:14.829Z,-0.66
2023-02-28T03:11:44.980Z,-0.81
2023-02-28T03:14:41.986Z,-0.76
2023-02-28T03:17:50.996Z,-0.74
2023-02-28T03:20:35.351Z,-1.10
2023-02-28T03:23:15.983Z,-0.72
2023-02-28T03:25:57.850Z,-1.04
2023-02-28T03:28:35.033Z,-1.20
2023-02-28T03:31:10.784Z,-1.12
2023-02-28T03:33:43.313Z,-1.32
2023-02-28T03:36:17.111Z,-1.21
2023-02-28T03:38:51.254Z,-1.23
2023-02-28T03:41:24.466Z,-1.41
2023-02-28T03:43:59.279Z,-1.62
2023-02-28T03:46:34.181Z,-1.07
2023-02-28T03:49:07.394Z,-1.05
2023-02-28T03:51:38.341Z,-1.28
2023-02-28T03:54:16.030Z,-0.89
2023-02-28T03:56:51.568Z,-1.28
2023-02-28T03:59:25.291Z,-1.30
2023-02-28T04:01:54.375Z,-1.28
2023-02-28T04:04:24.149Z,-1.31
2023-02-28T04:07:02.705Z,-1.16
2023-02-28T04:09:33.178Z,-1.14
2023-02-28T04:12:02.938Z,-1.55
2023-02-28T04:14:32.009Z,-1.76
2023-02-28T04:17:01.414Z,-1.29
2023-02-28T04:19:30.600Z,-1.06
2023-02-28T04:21:59.846Z,-1.19
2023-02-28T04:24:30.264Z,-1.58
2023-02-28T04:27:01.014Z,-0.97
2023-02-28T04:29:32.933Z,-0.93
2023-02-28T04:32:03.842Z,-0.73
2023-02-28T04:34:34.507Z,-1.20
2023-02-28T04:37:13.385Z,-1.21
2023-02-28T04:39:44.095Z,-0.84
2023-02-28T04:42:15.881Z,-0.89
2023-02-28T04:44:45.131Z,-1.00
2023-02-28T04:47:15.061Z,-0.97
2023-02-28T04:49:44.563Z,-1.74
2023-02-28T04:52:14.504Z,-1.31
2023-02-28T04:54:43.661Z,-1.22
2023-02-28T04:57:14.790Z,-1.33
2023-02-28T04:59:44.406Z,-1.08
2023-02-28T05:02:13.432Z,-1.05
2023-02-28T05:04:43.316Z,-1.44
2023-02-28T05:07:12.612Z,-1.60
2023-02-28T05:09:42.129Z,-0.82
2023-02-28T05:12:12.397Z,-2.17
2023-02-28T05:14:43.199Z,-0.89
2023-02-28T05:17:13.058Z,-1.10
2023-02-28T05:19:42.509Z,-0.83
2023-02-28T05:22:16.530Z,-0.70
2023-02-28T05:24:45.872Z,-0.58
2023-02-28T05:27:15.203Z,-0.95
2023-02-28T05:29:46.280Z,-0.75
2023-02-28T05:32:16.035Z,-1.03
2023-02-28T05:34:45.269Z,-0.98
2023-02-28T05:37:16.072Z,-0.85
2023-02-28T05:39:45.158Z,-1.01
2023-02-28T05:42:14.397Z,-0.44
2023-02-28T05:44:43.539Z,-0.66
2023-02-28T05:47:16.669Z,-0.94
2023-02-28T05:49:45.812Z,-0.90
2023-02-28T05:52:15.448Z,-0.81
2023-02-28T05:54:44.948Z,-1.01
2023-02-28T05:57:23.937Z,-0.86
2023-02-28T05:59:53.699Z,-0.57
2023-02-28T06:02:24.347Z,-0.51
2023-02-28T06:04:53.416Z,-0.39
2023-02-28T06:07:23.520Z,-0.37
2023-02-28T06:09:52.866Z,-1.09
2023-02-28T06:12:22.305Z,-0.84
2023-02-28T06:14:51.625Z,-0.85
2023-02-28T06:17:24.819Z,-1.29
2023-02-28T06:19:54.492Z,-0.82
2023-02-28T06:22:23.742Z,-0.57
2023-02-28T06:24:53.841Z,-0.74
2023-02-28T06:27:23.528Z,-0.83
2023-02-28T06:29:56.969Z,-0.22
2023-02-28T06:32:27.650Z,-0.69
2023-02-28T06:34:59.443Z,-0.46
2023-02-28T06:37:29.238Z,-0.82
2023-02-28T06:39:58.785Z,-1.26
2023-02-28T06:42:29.986Z,-0.64
2023-02-28T06:44:59.954Z,-0.44
2023-02-28T06:47:30.667Z,-1.05
2023-02-28T06:50:02.634Z,-0.13
2023-02-28T06:52:32.166Z,-0.34
2023-02-28T06:55:02.135Z,-0.51
2023-02-28T06:57:33.326Z,-0.05
2023-02-28T07:00:06.291Z,-0.35
2023-02-28T07:02:38.610Z,-0.52
2023-02-28T07:05:09.523Z,0.10
2023-02-28T07:07:41.864Z,0.18
2023-02-28T07:10:13.730Z,-0.15
2023-02-28T07:12:43.188Z,-0.37
2023-02-28T07:15:14.030Z,-0.14
2023-02-28T07:17:44.804Z,-0.24
2023-02-28T07:20:15.396Z,-0.22
2023-02-28T07:22:45.297Z,-0.17
2023-02-28T07:25:14.959Z,-0.53
2023-02-28T07:27:44.301Z,-0.52
2023-02-28T07:30:15.495Z,-0.26
2023-02-28T07:32:47.832Z,-0.88
2023-02-28T07:35:17.415Z,-0.61
2023-02-28T07:37:48.203Z,-0.47
2023-02-28T07:40:22.233Z,-0.79
2023-02-28T07:42:51.574Z,-0.07
2023-02-28T07:45:21.423Z,-0.77
2023-02-28T07:47:51.969Z,-0.56
2023-02-28T07:50:21.161Z,0.49
2023-02-28T07:52:50.383Z,0.38
2023-02-28T07:55:20.188Z,0.64
2023-02-28T07:57:49.991Z,0.24
2023-02-28T08:00:19.824Z,0.41
2023-02-28T08:02:50.114Z,0.76
2023-02-28T08:05:22.117Z,0.04
2023-02-28T08:07:54.562Z,0.76
2023-02-28T08:10:24.886Z,0.97
2023-02-28T08:12:54.386Z,1.30
2023-02-28T08:15:24.097Z,0.40
2023-02-28T08:17:53.690Z,1.10
2023-02-28T08:20:25.928Z,1.03
2023-02-28T08:22:56.021Z,1.57
2023-02-28T08:25:25.531Z,1.66
2023-02-28T08:27:55.641Z,1.14
2023-02-28T08:30:25.448Z,1.99
2023-02-28T08:32:55.551Z,1.77
2023-02-28T08:35:26.918Z,1.76
2023-02-28T08:37:56.950Z,1.73
2023-02-28T08:40:26.260Z,2.72
2023-02-28T08:42:55.392Z,2.16
2023-02-28T08:45:24.554Z,2.15
2023-02-28T08:47:54.859Z,2.78
2023-02-28T08:50:25.970Z,2.14
2023-02-28T08:52:55.343Z,1.32
2023-02-28T08:55:24.558Z,1.61
2023-02-28T08:57:56.079Z,1.80
2023-02-28T09:00:26.323Z,1.99
2023-02-28T09:02:56.290Z,1.58
2023-02-28T09:05:26.882Z,1.61
2023-02-28T09:07:56.494Z,1.47
2023-02-28T09:10:25.925Z,2.02
2023-02-28T09:12:55.573Z,0.86
2023-02-28T09:15:25.614Z,0.92
2023-02-28T09:17:56.526Z,1.63
2023-02-28T09:20:26.847Z,1.39
2023-02-28T09:22:57.414Z,1.38
2023-02-28T09:25:27.165Z,1.48
2023-02-28T09:27:57.029Z,2.05
2023-02-28T09:30:27.319Z,0.68
2023-02-28T09:32:56.877Z,0.29
2023-02-28T09:35:28.658Z,0.64
2023-02-28T09:38:00.130Z,0.13
2023-02-28T09:40:30.528Z,1.29
2023-02-28T09:43:02.233Z,1.88
2023-02-28T09:45:35.466Z,2.31
2023-02-28T09:48:11.571Z,1.91
2023-02-28T09:50:47.065Z,2.66
2023-02-28T09:53:23.167Z,1.24
2023-02-28T09:55:56.999Z,1.61
2023-02-28T09:58:30.730Z,1.92
2023-02-28T10:01:06.931Z,2.22
2023-02-28T10:03:41.246Z,1.31
2023-02-28T10:06:16.715Z,1.79
2023-02-28T10:08:53.575Z,1.83
2023-02-28T10:11:24.933Z,1.66
2023-02-28T10:14:02.556Z,1.81
2023-02-28T10:16:36.954Z,2.54
2023-02-28T10:19:14.305Z,1.43
2023-02-28T10:21:50.921Z,1.34
2023-02-28T10:24:25.651Z,2.69
2023-02-28T10:27:01.972Z,3.09
2023-02-28T10:29:35.678Z,4.11
2023-02-28T10:32:06.451Z,5.85
2023-02-28T10:34:35.821Z,3.84
2023-02-28T10:37:09.424Z,3.83
2023-02-28T10:39:43.328Z,6.04
2023-02-28T10:42:27.268Z,8.27
2023-02-28T10:45:12.282Z,7.97
2023-02-28T10:47:54.902Z,8.30
2023-02-28T10:50:44.707Z,6.66
2023-02-28T10:53:36.104Z,10.62
2023-02-28T10:56:18.035Z,12.01
2023-02-28T10:58:55.956Z,8.97
2023-02-28T11:01:36.204Z,7.60
2023-02-28T11:04:18.299Z,7.00
2023-02-28T11:06:48.573Z,9.39
2023-02-28T11:09:26.095Z,8.94
2023-02-28T11:11:55.930Z,8.64
2023-02-28T11:14:29.788Z,11.19
2023-02-28T11:17:04.095Z,12.95
2023-02-28T11:19:47.845Z,11.06
2023-02-28T11:22:21.756Z,10.18
2023-02-28T11:24:54.279Z,12.49
2023-02-28T11:27:48.771Z,12.27
2023-02-28T11:30:38.105Z,13.05
2023-02-28T11:33:34.417Z,11.81
2023-02-28T11:36:12.366Z,14.13
2023-02-28T11:38:44.260Z,15.90
2023-02-28T11:41:41.518Z,16.25
2023-02-28T11:44:37.979Z,14.37
2023-02-28T11:47:14.653Z,16.75
2023-02-28T11:49:54.768Z,13.22
2023-02-28T11:52:42.044Z,11.95
2023-02-28T11:55:20.627Z,15.48
2023-02-28T11:58:15.728Z,12.59
2023-02-28T12:01:16.978Z,15.80
2023-02-28T12:03:58.017Z,12.01
2023-02-28T12:06:35.402Z,13.00
2023-02-28T12:09:25.884Z,15.60
2023-02-28T12:12:02.512Z,13.83
2023-02-28T12:15:05.795Z,14.28
2023-02-28T12:17:51.220Z,17.51
2023-02-28T12:20:32.772Z,12.04
2023-02-28T12:23:21.873Z,13.20
2023-02-28T12:26:03.365Z,13.55
2023-02-28T12:28:36.710Z,15.51
2023-02-28T12:31:11.825Z,13.49
2023-02-28T12:33:46.179Z,15.36
2023-02-28T12:36:23.142Z,15.08
2023-02-28T12:38:58.691Z,15.20
2023-02-28T12:41:35.875Z,14.34
2023-02-28T12:44:14.033Z,13.66
2023-02-28T12:46:50.690Z,13.77
2023-02-28T12:49:26.708Z,15.05
2023-02-28T12:51:56.816Z,14.65
2023-02-28T12:54:31.411Z,14.72
2023-02-28T12:57:11.507Z,15.17
2023-02-28T12:59:45.347Z,14.29
2023-02-28T13:02:51.247Z,16.72
2023-02-28T13:05:42.217Z,14.13
2023-02-28T13:08:58.982Z,11.90
2023-02-28T13:11:31.970Z,13.25
2023-02-28T13:14:03.658Z,15.49
2023-02-28T13:16:57.532Z,16.25
2023-02-28T13:19:30.194Z,15.67
2023-02-28T13:22:01.932Z,14.64
2023-02-28T13:24:46.627Z,15.42
2023-02-28T13:27:40.112Z,14.10
2023-02-28T13:30:48.477Z,10.95
2023-02-28T13:33:26.726Z,11.02
2023-02-28T13:36:27.925Z,11.88
2023-02-28T13:39:01.630Z,9.96
2023-02-28T13:41:58.063Z,7.83
2023-02-28T13:44:28.643Z,9.02
2023-02-28T13:47:30.334Z,9.73
2023-02-28T13:50:25.216Z,11.04
2023-02-28T13:53:25.754Z,12.25
2023-02-28T13:56:03.642Z,13.40
2023-02-28T13:58:51.142Z,13.78
2023-02-28T14:01:34.862Z,13.24
2023-02-28T14:04:27.509Z,11.37
2023-02-28T14:06:59.654Z,12.48
2023-02-28T14:09:31.115Z,11.49
2023-02-28T14:12:40.160Z,12.19
2023-02-28T14:15:43.213Z,7.53
2023-02-28T14:18:28.778Z,4.85
2023-02-28T14:21:10.596Z,4.44
2023-02-28T14:24:14.389Z,4.46
2023-02-28T14:26:59.696Z,3.94
2023-02-28T14:30:18.117Z,3.78
2023-02-28T14:32:57.175Z,3.28
2023-02-28T14:35:46.125Z,3.18
2023-02-28T14:38:22.483Z,3.24
2023-02-28T14:40:55.326Z,2.71
2023-02-28T14:43:27.231Z,2.39
2023-02-28T14:45:59.757Z,2.34
2023-02-28T14:48:30.081Z,2.47
2023-02-28T14:51:01.865Z,2.44
2023-02-28T14:53:38.518Z,2.73
2023-02-28T14:56:09.763Z,2.24
2023-02-28T14:58:39.306Z,2.46
2023-02-28T15:01:13.394Z,2.22
2023-02-28T15:03:45.820Z,1.72
2023-02-28T15:06:17.088Z,1.99
2023-02-28T15:08:47.500Z,2.12
2023-02-28T15:11:20.229Z,1.37
2023-02-28T15:13:51.970Z,1.50
2023-02-28T15:16:24.644Z,1.76
2023-02-28T15:18:57.199Z,1.93
2023-02-28T15:21:29.489Z,1.72
2023-02-28T15:24:02.736Z,1.67
2023-02-28T15:26:35.484Z,1.49
2023-02-28T15:29:08.405Z,1.24
2023-02-28T15:31:56.397Z,1.38
2023-02-28T15:34:40.552Z,1.19
2023-02-28T15:37:31.070Z,1.13
2023-02-28T15:40:07.171Z,0.95
2023-02-28T15:42:37.025Z,1.17
2023-02-28T15:45:09.151Z,1.24
2023-02-28T15:47:40.322Z,1.34
2023-02-28T15:50:16.263Z,0.93
2023-02-28T15:52:47.301Z,0.74
2023-02-28T15:55:21.715Z,0.77
2023-02-28T15:57:55.401Z,0.72
2023-02-28T16:00:25.919Z,0.92
2023-02-28T16:02:57.034Z,0.93
2023-02-28T16:05:33.515Z,0.49
2023-02-28T16:08:12.515Z,0.55
2023-02-28T16:10:42.446Z,0.18
2023-02-28T16:13:17.064Z,-0.04
2023-02-28T16:15:46.562Z,-0.09
2023-02-28T16:18:17.382Z,-0.07
2023-02-28T16:20:46.853Z,-0.53
2023-02-28T16:23:16.147Z,-0.39
2023-02-28T16:25:47.778Z,-0.26
2023-02-28T16:28:22.797Z,0.17
2023-02-28T16:30:53.831Z,-0.11
2023-02-28T16:33:24.822Z,-0.28
2023-02-28T16:35:54.453Z,-0.61
2023-02-28T16:38:24.423Z,-0.31
2023-02-28T16:41:02.161Z,-0.06
2023-02-28T16:43:31.942Z,-0.35
2023-02-28T16:46:02.558Z,-0.02
2023-02-28T16:48:33.484Z,0.06
2023-02-28T16:51:05.378Z,-0.01
2023-02-28T16:53:35.586Z,-0.14
2023-02-28T16:56:07.844Z,-0.07
2023-02-28T16:58:37.843Z,-0.28
2023-02-28T17:01:07.519Z,0.04
2023-02-28T17:03:38.702Z,-0.15
2023-02-28T17:06:18.647Z,-0.32
2023-02-28T17:08:48.391Z,-0.38
2023-02-28T17:11:17.958Z,-0.17
2023-02-28T17:13:47.858Z,-0.28
2023-02-28T17:16:23.045Z,-0.15
2023-02-28T17:18:56.051Z,-0.27
2023-02-28T17:21:25.698Z,-0.29
2023-02-28T17:23:55.704Z,-0.36
2023-02-28T17:26:26.312Z,-1.04
2023-02-28T17:28:57.032Z,-0.32
2023-02-28T17:31:28.475Z,-0.44
2023-02-28T17:33:59.587Z,-1.10
2023-02-28T17:36:30.200Z,-0.36
2023-02-28T17:39:00.845Z,-0.33
2023-02-28T17:41:31.785Z,-0.61
2023-02-28T17:44:01.088Z,-0.55
2023-02-28T17:46:31.486Z,-0.43
2023-02-28T17:49:02.676Z,-0.58
2023-02-28T17:51:32.304Z,-0.63
2023-02-28T17:54:02.079Z,-0.78
2023-02-28T17:56:31.865Z,-0.54
2023-02-28T17:59:02.673Z,-0.57
2023-02-28T18:01:33.469Z,-1.04
2023-02-28T18:04:05.471Z,-0.55
2023-02-28T18:06:47.488Z,-0.76
2023-02-28T18:09:19.576Z,-0.79
2023-02-28T18:11:51.338Z,-0.54
2023-02-28T18:14:24.612Z,-0.85
2023-02-28T18:16:56.146Z,-0.77
2023-02-28T18:19:27.136Z,-0.59
2023-02-28T18:21:58.358Z,-0.63
2023-02-28T18:24:28.825Z,-1.06
2023-02-28T18:26:58.584Z,-0.81
2023-02-28T18:29:29.711Z,-0.91
2023-02-28T18:31:59.770Z,-0.91
2023-02-28T18:34:31.653Z,-1.32
2023-02-28T18:37:01.424Z,-0.84
2023-02-28T18:39:32.126Z,-1.01
2023-02-28T18:42:02.010Z,-1.06
2023-02-28T18:44:32.010Z,-0.88
2023-02-28T18:47:02.565Z,-0.85
2023-02-28T18:49:35.880Z,-1.54
2023-02-28T18:52:05.722Z,-1.11
2023-02-28T18:54:37.040Z,-1.25
2023-02-28T18:57:06.843Z,-1.19
2023-02-28T18:59:36.667Z,-1.15
2023-02-28T19:02:06.294Z,-1.11
2023-02-28T19:04:37.167Z,-1.35
2023-02-28T19:07:07.713Z,-1.20
2023-02-28T19:09:37.722Z,-1.01
2023-02-28T19:12:08.385Z,-1.42
2023-02-28T19:14:38.440Z,-1.41
2023-02-28T19:17:08.101Z,-1.41
2023-02-28T19:19:39.326Z,-1.28
2023-02-28T19:22:09.543Z,-1.15
2023-02-28T19:24:39.143Z,-1.41
2023-02-28T19:27:08.866Z,-1.29
2023-02-28T19:29:38.708Z,-1.31
2023-02-28T19:32:08.616Z,-1.28
2023-02-28T19:34:39.945Z,-1.06
2023-02-28T19:37:09.462Z,-1.10
2023-02-28T19:39:42.273Z,-1.09
2023-02-28T19:42:13.299Z,-1.25
2023-02-28T19:44:45.129Z,-1.48
2023-02-28T19:47:14.938Z,-1.28
2023-02-28T19:49:46.224Z,-3.48
2023-02-28T19:52:15.768Z,-1.52
2023-02-28T19:54:45.512Z,-1.29
2023-02-28T19:57:16.747Z,-1.29
2023-02-28T19:59:47.174Z,-1.03
2023-02-28T20:02:19.272Z,-1.25
2023-02-28T20:04:52.632Z,-1.67
2023-02-28T20:07:23.958Z,-0.90
2023-02-28T20:09:55.912Z,-1.00
2023-02-28T20:12:26.369Z,-1.14
2023-02-28T20:14:57.565Z,-1.32
2023-02-28T20:17:27.654Z,-1.33
2023-02-28T20:19:58.608Z,-1.26
2023-02-28T20:22:28.643Z,-1.36
2023-02-28T20:24:58.200Z,-1.62
2023-02-28T20:27:27.962Z,-1.46
2023-02-28T20:29:57.482Z,-1.75
2023-02-28T20:32:27.669Z,-1.33
2023-02-28T20:34:58.599Z,-1.51
2023-02-28T20:37:29.351Z,-1.47
2023-02-28T20:39:59.588Z,-1.93
2023-02-28T20:42:28.919Z,-1.76
2023-02-28T20:44:58.691Z,-1.89
2023-02-28T20:47:29.264Z,-2.16
2023-02-28T20:50:00.169Z,-2.50
2023-02-28T20:52:29.545Z,-1.83
2023-02-28T20:54:59.597Z,-1.79
2023-02-28T20:57:30.326Z,-1.31
2023-02-28T21:00:00.008Z,-1.46
2023-02-28T21:02:29.461Z,-1.42
2023-02-28T21:05:00.038Z,-1.47
2023-02-28T21:07:29.697Z,-1.46
2023-02-28T21:09:59.245Z,-1.41
2023-02-28T21:12:28.907Z,-1.59
2023-02-28T21:14:58.866Z,-1.33
2023-02-28T21:17:30.263Z,-1.49
2023-02-28T21:20:02.824Z,-1.47
2023-02-28T21:22:34.708Z,-1.35
2023-02-28T21:25:06.194Z,-1.60
2023-02-28T21:27:36.182Z,-1.51
2023-02-28T21:30:06.909Z,-1.41
2023-02-28T21:32:36.384Z,-1.49
2023-02-28T21:35:07.780Z,-1.57
2023-02-28T21:37:39.516Z,-1.52
2023-02-28T21:40:10.283Z,-1.65
2023-02-28T21:42:39.907Z,-1.72
2023-02-28T21:45:10.091Z,-1.55
2023-02-28T21:47:41.392Z,-1.48
2023-02-28T21:50:15.471Z,-1.70
2023-02-28T21:52:46.334Z,-1.53
2023-02-28T21:55:15.901Z,-1.63
2023-02-28T21:57:45.494Z,-1.52
2023-02-28T22:00:17.390Z,-1.60
2023-02-28T22:02:47.379Z,-1.50
2023-02-28T22:05:21.950Z,-1.27
2023-02-28T22:07:51.601Z,-1.36
2023-02-28T22:10:21.181Z,-1.37
2023-02-28T22:12:50.756Z,-1.29
2023-02-28T22:15:19.923Z,-1.28
2023-02-28T22:17:49.629Z,-1.12
2023-02-28T22:20:19.126Z,-1.38
2023-02-28T22:22:50.258Z,-1.28
2023-02-28T22:25:19.934Z,-1.25
2023-02-28T22:27:49.392Z,-1.39
2023-02-28T22:30:19.598Z,-1.44
2023-02-28T22:32:48.891Z,-1.23
2023-02-28T22:35:19.654Z,-1.36
2023-02-28T22:37:59.692Z,-1.44
2023-02-28T22:40:35.554Z,-1.53
2023-02-28T22:43:15.756Z,-1.30
2023-02-28T22:45:52.894Z,-1.93
2023-02-28T22:48:36.485Z,-1.44
2023-02-28T22:51:16.877Z,-1.32
2023-02-28T22:54:01.494Z,-1.28
2023-02-28T22:57:04.540Z,-1.35
2023-02-28T22:59:37.089Z,-1.53
2023-02-28T23:02:06.599Z,-1.70
2023-02-28T23:05:39.181Z,-1.59
2023-02-28T23:12:41.355Z,-1.50
2023-02-28T23:15:27.346Z,-1.68
2023-02-28T23:17:56.903Z,-1.62
2023-02-28T23:20:26.669Z,-1.60
2023-02-28T23:22:56.341Z,-1.77
2023-02-28T23:25:25.597Z,-2.05
2023-02-28T23:27:56.514Z,-1.66
2023-02-28T23:30:26.296Z,-1.84
2023-02-28T23:32:55.532Z,-1.88
2023-02-28T23:35:24.768Z,-1.77
2023-02-28T23:37:54.080Z,-1.74
2023-02-28T23:40:23.516Z,-1.75
2023-02-28T23:42:53.767Z,-1.55
2023-02-28T23:45:24.258Z,-1.69
2023-02-28T23:47:53.579Z,-1.66
2023-02-28T23:50:22.962Z,-1.74
2023-02-28T23:52:52.389Z,-1.78
2023-02-28T23:55:22.240Z,-1.64
2023-02-28T23:57:51.841Z,-1.99
